CheckWX is a tool to help pilots better visualize weather data.  It is not intended as a substitute for an official pre-flight weather briefing.

00:13:57 UTC

KUCP METAR
New Castle Municipal Airport
New Castle, Pennsylvania, USA
Current

18 mins ago

KUCP 012356Z AUTO 34005KT 10SM CLR 07/M06 A2997 RMK AO2 SLP170 6//// T00671061 10111 20067 51019 PNO $
Observed
Apr-1 @ 23:56 UTC
Wind
  • 340° at 5 KTS
Visibility
10 SM
Flight Rules
VFR
Cloud Levels
  • Clear skies
Temperature
C / 45°F
Dewpoint
-6°C / 21°F
Humidity
39%
Altimeter
29.97" Hg
Pressure
1014.92 hPa
Previous

1 hour ago

KUCP 012256Z AUTO 34011KT 10SM CLR 08/M07 A2996 RMK AO2 SLP165 T00781067 PNO $
Observed
Apr-1 @ 22:56 UTC
Wind
  • 340° at 11 KTS
Visibility
10 SM
Flight Rules
VFR
Cloud Levels
  • Clear skies
Temperature
C / 46°F
Dewpoint
-7°C / 19°F
Humidity
34%
Altimeter
29.96" Hg
Pressure
1014.52 hPa
Previous

2 hours ago

KUCP 012156Z AUTO 32016G21KT 10SM CLR 09/M07 A2994 RMK AO2 SLP157 T00941072 PNO $
Observed
Apr-1 @ 21:56 UTC
Wind
  • 320° at 16 KTS
  • Gusting to 21 KTS
Visibility
10 SM
Flight Rules
VFR
Cloud Levels
  • Clear skies
Temperature
C / 48°F
Dewpoint
-7°C / 19°F
Humidity
32%
Altimeter
29.94" Hg
Pressure
1013.92 hPa